createdAt,value
2023-05-27T00:01:01.828Z,3.8
2023-05-27T00:06:01.281Z,3.6
2023-05-27T00:11:01.268Z,3.2
2023-05-27T00:16:01.566Z,3.4
2023-05-27T00:21:01.293Z,3.8
2023-05-27T00:26:01.849Z,4.0
2023-05-27T00:31:01.270Z,4.0
2023-05-27T00:36:01.517Z,4.2
2023-05-27T00:46:01.484Z,3.5
2023-05-27T00:51:01.543Z,3.6
2023-05-27T00:56:01.477Z,3.7
2023-05-27T01:01:01.437Z,4.0
2023-05-27T01:06:01.847Z,4.4
2023-05-27T01:11:04.669Z,4.7
2023-05-27T01:16:02.817Z,4.2
2023-05-27T01:26:01.411Z,4.1
2023-05-27T01:31:01.619Z,3.9
2023-05-27T01:36:01.666Z,3.7
2023-05-27T01:46:01.271Z,4.1
2023-05-27T01:51:01.423Z,4.1
2023-05-27T01:56:01.502Z,4.1
2023-05-27T02:01:01.446Z,4.4
2023-05-27T02:06:01.270Z,4.6
2023-05-27T02:11:01.440Z,4.6
2023-05-27T02:16:01.333Z,4.7
2023-05-27T02:21:01.386Z,5.3
2023-05-27T02:26:01.333Z,5.2
2023-05-27T02:31:01.635Z,5.4
2023-05-27T02:36:01.428Z,5.7
2023-05-27T02:46:01.484Z,5.9
2023-05-27T02:51:01.472Z,6.0
2023-05-27T02:56:01.282Z,5.8
2023-05-27T03:01:01.341Z,5.7
2023-05-27T03:06:01.356Z,5.1
2023-05-27T03:11:01.561Z,5.1
2023-05-27T03:16:01.515Z,4.8
2023-05-27T03:21:01.283Z,5.4
2023-05-27T03:26:02.087Z,5.6
2023-05-27T03:31:01.432Z,6.2
2023-05-27T03:36:01.420Z,6.4
2023-05-27T03:41:01.268Z,6.6
2023-05-27T03:46:01.404Z,6.1
2023-05-27T03:51:01.445Z,5.9
2023-05-27T03:56:04.769Z,5.9
2023-05-27T04:01:01.382Z,5.9
2023-05-27T04:06:01.379Z,6.2
2023-05-27T04:11:01.443Z,6.3
2023-05-27T04:16:01.451Z,6.2
2023-05-27T04:21:01.341Z,6.0
2023-05-27T04:26:06.548Z,6.5
2023-05-27T04:31:01.277Z,6.6
2023-05-27T04:36:01.318Z,7.0
2023-05-27T04:41:02.237Z,7.7
2023-05-27T04:46:01.808Z,7.7
2023-05-27T04:51:02.121Z,7.4
2023-05-27T04:56:01.826Z,7.4
2023-05-27T05:01:01.838Z,7.1
2023-05-27T05:06:01.982Z,7.2
2023-05-27T05:11:01.785Z,7.6
2023-05-27T05:16:01.807Z,7.8
2023-05-27T05:21:01.930Z,7.9
2023-05-27T05:31:01.791Z,7.6
2023-05-27T05:36:02.397Z,7.2
2023-05-27T05:41:01.830Z,6.8
2023-05-27T05:46:02.348Z,6.8
2023-05-27T05:51:03.973Z,6.8
2023-05-27T05:56:02.038Z,7.4
2023-05-27T06:01:01.865Z,7.7
2023-05-27T06:06:01.991Z,8.5
2023-05-27T06:11:01.885Z,8.9
2023-05-27T06:16:02.226Z,9.7
2023-05-27T06:21:01.385Z,10.3
2023-05-27T06:26:01.928Z,11.1
2023-05-27T06:31:01.432Z,11.4
2023-05-27T06:36:01.845Z,10.4
2023-05-27T06:41:01.649Z,9.1
2023-05-27T06:46:05.966Z,7.8
2023-05-27T06:51:01.359Z,6.2
2023-05-27T06:56:01.958Z,4.9
2023-05-27T07:01:01.435Z,4.9
2023-05-27T07:06:01.721Z,4.4
2023-05-27T07:11:01.566Z,4.2
2023-05-27T07:16:01.505Z,4.0
2023-05-27T07:21:01.662Z,3.7
2023-05-27T07:26:01.453Z,3.5
2023-05-27T07:31:01.496Z,3.7
2023-05-27T07:36:01.284Z,3.7
2023-05-27T07:51:02.204Z,4.3
2023-05-27T07:56:01.813Z,4.3
2023-05-27T08:07:01.430Z,4.5
2023-05-27T08:12:01.261Z,4.7
2023-05-27T08:17:01.472Z,4.4
2023-05-27T08:22:06.763Z,4.4
2023-05-27T08:27:02.097Z,4.4
2023-05-27T08:32:02.239Z,4.2
2023-05-27T08:37:01.841Z,3.8
2023-05-27T08:42:02.441Z,3.4
2023-05-27T08:52:01.275Z,3.5
2023-05-27T08:57:01.295Z,3.6
2023-05-27T09:02:01.645Z,3.6
2023-05-27T09:07:04.847Z,4.0
2023-05-27T09:12:02.393Z,4.2
2023-05-27T09:17:06.185Z,4.1
2023-05-27T09:22:01.272Z,4.1
2023-05-27T09:27:01.812Z,4.1
2023-05-27T09:32:01.709Z,3.8
2023-05-27T09:37:02.062Z,3.7
2023-05-27T09:42:01.374Z,4.5
2023-05-27T09:47:02.952Z,4.1
2023-05-27T09:52:01.335Z,4.0
2023-05-27T10:02:02.373Z,3.8
2023-05-27T10:07:02.462Z,2.7
2023-05-27T10:12:01.396Z,2.8
2023-05-27T10:17:02.462Z,2.4
2023-05-27T10:27:02.423Z,2.4
2023-05-27T10:32:01.775Z,2.2
2023-05-27T10:37:01.485Z,2.1
2023-05-27T10:42:01.370Z,2.6
2023-05-27T10:47:01.697Z,2.2
2023-05-27T10:52:01.820Z,2.2
2023-05-27T11:02:01.584Z,2.3
2023-05-27T11:07:05.180Z,2.2
2023-05-27T11:12:02.408Z,2.1
2023-05-27T11:17:01.267Z,2.3
2023-05-27T11:22:01.311Z,2.4
2023-05-27T11:27:08.396Z,2.2
2023-05-27T11:32:02.522Z,1.7
2023-05-27T11:37:01.503Z,1.7
2023-05-27T11:42:08.522Z,1.8
2023-05-27T11:47:01.423Z,1.5
2023-05-27T11:52:01.268Z,1.6
2023-05-27T11:57:01.273Z,2.0
2023-05-27T12:02:02.199Z,2.2
2023-05-27T12:07:19.288Z,2.2
2023-05-27T12:12:01.283Z,2.2
2023-05-27T12:17:01.281Z,2.4
2023-05-27T12:27:01.453Z,2.3
2023-05-27T12:32:01.510Z,2.0
2023-05-27T12:42:01.887Z,1.9
2023-05-27T12:47:01.657Z,2.2
2023-05-27T12:52:01.791Z,2.4
2023-05-27T12:57:01.377Z,2.7
2023-05-27T13:02:01.843Z,2.8
2023-05-27T13:12:01.940Z,2.5
2023-05-27T13:17:01.742Z,2.4
2023-05-27T13:32:02.715Z,2.6
2023-05-27T13:37:13.996Z,2.4
2023-05-27T14:05:03.076Z,1.2
2023-05-27T14:10:02.933Z,1.1
2023-05-27T14:16:01.444Z,1.8
2023-05-27T14:21:01.417Z,1.9
2023-05-27T14:26:01.285Z,1.6
2023-05-27T14:31:07.460Z,2.0
2023-05-27T14:36:01.340Z,2.2
2023-05-27T14:41:01.419Z,2.0
2023-05-27T14:46:02.057Z,2.0
2023-05-27T14:51:02.718Z,1.8
2023-05-27T14:56:01.469Z,3.4
2023-05-27T15:01:01.560Z,3.7
2023-05-27T15:06:01.328Z,3.5
2023-05-27T15:11:02.398Z,3.7
2023-05-27T15:16:01.366Z,4.1
2023-05-27T15:21:01.440Z,2.5
2023-05-27T15:26:01.846Z,2.2
2023-05-27T15:31:01.432Z,2.4
2023-05-27T15:36:01.922Z,1.8
2023-05-27T15:41:01.439Z,2.0
2023-05-27T15:51:01.434Z,2.0
2023-05-27T15:56:02.863Z,2.2
2023-05-27T16:01:01.443Z,2.7
2023-05-27T16:06:01.406Z,2.6
2023-05-27T16:11:01.435Z,2.7
2023-05-27T16:16:01.404Z,2.7
2023-05-27T16:31:01.866Z,3.0
2023-05-27T16:36:01.881Z,3.5
2023-05-27T16:41:02.082Z,3.7
2023-05-27T16:46:01.456Z,4.5
2023-05-27T16:51:01.373Z,4.1
2023-05-27T16:56:03.144Z,4.6
2023-05-27T17:01:01.416Z,4.2
2023-05-27T17:06:01.376Z,4.0
2023-05-27T17:11:01.352Z,2.7
2023-05-27T17:16:01.511Z,2.9
2023-05-27T17:21:01.570Z,2.4
2023-05-27T17:26:01.443Z,2.4
2023-05-27T17:31:02.037Z,2.4
2023-05-27T17:36:01.351Z,2.9
2023-05-27T17:41:01.889Z,3.2
2023-05-27T17:46:01.303Z,3.8
2023-05-27T17:52:21.777Z,3.7
2023-05-27T17:57:02.839Z,3.6
2023-05-27T18:02:01.425Z,3.1
2023-05-27T18:07:01.472Z,3.1
2023-05-27T18:12:01.433Z,2.7
2023-05-27T18:17:04.201Z,3.1
2023-05-27T18:22:01.584Z,6.1
2023-05-27T18:27:01.299Z,7.9
2023-05-27T18:32:01.488Z,8.4
2023-05-27T18:37:01.882Z,10.8
2023-05-27T18:42:01.417Z,10.8
2023-05-27T18:47:01.725Z,9.1
2023-05-27T18:52:01.446Z,8.5
2023-05-27T18:57:01.341Z,10.0
2023-05-27T19:02:01.544Z,10.3
2023-05-27T19:07:01.889Z,12.0
2023-05-27T19:12:01.832Z,12.5
2023-05-27T19:17:02.225Z,13.2
2023-05-27T19:22:01.844Z,12.9
2023-05-27T19:27:02.243Z,11.4
2023-05-27T19:32:01.719Z,10.3
2023-05-27T19:37:01.871Z,10.2
2023-05-27T19:42:01.268Z,10.9
2023-05-27T19:47:01.481Z,12.4
2023-05-27T19:52:01.895Z,14.1
2023-05-27T19:57:01.886Z,14.9
2023-05-27T20:02:03.092Z,15.0
2023-05-27T20:07:02.055Z,14.6
2023-05-27T20:12:01.426Z,13.3
2023-05-27T20:17:01.482Z,12.4
2023-05-27T20:22:01.923Z,12.4
2023-05-27T20:27:01.880Z,12.3
2023-05-27T20:32:01.468Z,11.7
2023-05-27T20:37:01.475Z,10.0
2023-05-27T20:42:01.355Z,9.2
2023-05-27T20:47:01.331Z,8.9
2023-05-27T20:52:01.684Z,8.7
2023-05-27T20:57:01.299Z,8.5
2023-05-27T21:02:10.908Z,9.1
2023-05-27T21:07:01.285Z,9.0
2023-05-27T21:12:01.428Z,8.7
2023-05-27T21:17:01.318Z,8.7
2023-05-27T21:22:01.270Z,10.1
2023-05-27T21:27:02.117Z,12.7
2023-05-27T21:32:01.577Z,14.2
2023-05-27T21:37:01.462Z,15.7
2023-05-27T21:42:01.879Z,16.3
2023-05-27T21:47:02.345Z,15.8
2023-05-27T21:52:01.828Z,14.3
2023-05-27T21:57:01.272Z,14.2
2023-05-27T22:02:02.756Z,13.4
2023-05-27T22:07:01.921Z,13.2
2023-05-27T22:12:01.452Z,13.6
2023-05-27T22:18:02.053Z,13.8
2023-05-27T22:23:02.510Z,13.0
2023-05-27T22:33:01.662Z,14.9
2023-05-27T22:38:01.808Z,14.9
2023-05-27T22:43:01.268Z,14.8
2023-05-27T22:48:01.505Z,15.2
2023-05-27T22:53:01.613Z,14.8
2023-05-27T22:58:01.796Z,14.4
2023-05-27T23:03:02.677Z,14.0
2023-05-27T23:08:01.369Z,13.2
2023-05-27T23:13:02.207Z,12.6
2023-05-27T23:18:01.633Z,12.3
2023-05-27T23:23:01.409Z,11.8
2023-05-27T23:28:01.350Z,11.5
2023-05-27T23:34:01.495Z,12.1
2023-05-27T23:39:06.445Z,12.0
2023-05-27T23:44:01.267Z,11.9
2023-05-27T23:49:01.388Z,12.2
2023-05-27T23:54:01.421Z,12.0
